Hauptseite
METAR-TAF:

METAR-TAF

Flughäfen :

Augsburg, Deutschland

Flughafen Augsburg

Breite: 48-26N, Länge: 010-56E, Höhe: 461 m

Beobachtung

Neuester Wetterbericht von vor 30 Minuten, um 06:20 UTC
Wind 3 kt aus Südost
Temperatur 6°C
Luftfeuchtigkeit 100%
Luftdruck 1015 hPa
Sichtweite: 6000 m

METAR: EDMA 200620Z 14003KT 6000 R25/0900U NSC 06/06 Q1015

Zeit: 08:50 (06:50 UTC)

Prognose

Neuester Wetterbericht von vor 1 Stunde und 50 Minuten, um 05:00 UTC
Gültige Prognose vom 20 um 06 UTC bis 20 um 15 UTC
Wind 2 kt aus unterschiedlichen Richtungen
Sichtweite: 0500 m
Durchbrochene Bewölkung in der Höhe von 100 ft
Nebel
Übergehend zu
vom 20 um 07 UTC bis 20 um 09 UTC
Wind 5 kt aus Südwest
Sichtweite 10 km oder mehr
keine Wolken unter 1500 m und keine Kumulonimbus oder Gewitterwolken

TAF: EDMA 200500Z 2006/2015 VRB02KT 0500 FG BKN001 BECMG 2007/2009 23005KT CAVOK

Wetterbeobachtungen und Prognosen von mehr als 4000 Flughäfen (METAR und TAF Bericht).

Die verfügbaren Stationen werden durch gelbe und rote Markierungen auf der Karte dargestellt.

Führen Sie die Maus auf sie, um den Namen der Station zu sehen.

Darauf klicken, um die Beobachtung von Wetterbeobachtungen und Prognosen zu sehen.

Um die Karte zu ändern : klicken Sie auf den grünen Tasten mit einem schwarzen Kreuz Zum Vergrößern, auf den grünen Button mit einem Gedankenstrich zu verkleinern, oder auf die grünen Pfeile für benachbarte Karten.


METAR-TAF: